sensor_id;sensor_type;location;lat;lon;timestamp;P1;durP1;ratioP1;P2;durP2;ratioP2
15637;SDS011;26604;53.596;10.042;2023-08-07T00:00:18;5.20;;;1.92;;
15637;SDS011;26604;53.596;10.042;2023-08-07T00:02:45;6.10;;;2.08;;
15637;SDS011;26604;53.596;10.042;2023-08-07T00:05:12;5.45;;;1.70;;
15637;SDS011;26604;53.596;10.042;2023-08-07T00:07:38;4.70;;;1.65;;
15637;SDS011;26604;53.596;10.042;2023-08-07T00:10:06;6.95;;;1.80;;
15637;SDS011;26604;53.596;10.042;2023-08-07T00:12:33;2.65;;;1.65;;
15637;SDS011;26604;53.596;10.042;2023-08-07T00:15:02;5.15;;;1.85;;
15637;SDS011;26604;53.596;10.042;2023-08-07T00:17:29;4.65;;;1.88;;
15637;SDS011;26604;53.596;10.042;2023-08-07T00:19:56;5.75;;;1.73;;
15637;SDS011;26604;53.596;10.042;2023-08-07T00:22:23;2.40;;;1.55;;
15637;SDS011;26604;53.596;10.042;2023-08-07T00:24:51;4.57;;;2.00;;
15637;SDS011;26604;53.596;10.042;2023-08-07T00:27:18;2.65;;;1.50;;
15637;SDS011;26604;53.596;10.042;2023-08-07T00:29:45;3.47;;;1.88;;
15637;SDS011;26604;53.596;10.042;2023-08-07T00:32:13;3.95;;;1.67;;
15637;SDS011;26604;53.596;10.042;2023-08-07T00:34:40;3.90;;;1.70;;
15637;SDS011;26604;53.596;10.042;2023-08-07T00:37:06;7.05;;;1.77;;
15637;SDS011;26604;53.596;10.042;2023-08-07T00:39:33;4.13;;;1.80;;
15637;SDS011;26604;53.596;10.042;2023-08-07T00:42:03;2.47;;;1.40;;
15637;SDS011;26604;53.596;10.042;2023-08-07T00:44:31;2.50;;;1.50;;
15637;SDS011;26604;53.596;10.042;2023-08-07T00:46:58;3.08;;;1.80;;
15637;SDS011;26604;53.596;10.042;2023-08-07T00:49:26;3.83;;;1.77;;
15637;SDS011;26604;53.596;10.042;2023-08-07T00:51:53;5.13;;;2.00;;
15637;SDS011;26604;53.596;10.042;2023-08-07T00:54:20;3.83;;;1.55;;
15637;SDS011;26604;53.596;10.042;2023-08-07T00:56:48;5.13;;;1.70;;
15637;SDS011;26604;53.596;10.042;2023-08-07T00:59:15;6.05;;;1.60;;
15637;SDS011;26604;53.596;10.042;2023-08-07T01:01:42;2.35;;;1.48;;
15637;SDS011;26604;53.596;10.042;2023-08-07T01:04:09;4.63;;;1.48;;
15637;SDS011;26604;53.596;10.042;2023-08-07T01:06:38;7.07;;;1.67;;
15637;SDS011;26604;53.596;10.042;2023-08-07T01:09:05;3.78;;;1.40;;
15637;SDS011;26604;53.596;10.042;2023-08-07T01:11:33;6.72;;;1.55;;
15637;SDS011;26604;53.596;10.042;2023-08-07T01:14:05;3.72;;;1.60;;
15637;SDS011;26604;53.596;10.042;2023-08-07T01:16:42;3.08;;;1.60;;
15637;SDS011;26604;53.596;10.042;2023-08-07T01:19:17;2.72;;;1.20;;
15637;SDS011;26604;53.596;10.042;2023-08-07T01:21:54;2.63;;;1.27;;
15637;SDS011;26604;53.596;10.042;2023-08-07T01:24:30;8.73;;;1.75;;
15637;SDS011;26604;53.596;10.042;2023-08-07T01:26:57;5.75;;;1.70;;
15637;SDS011;26604;53.596;10.042;2023-08-07T01:29:35;3.75;;;1.52;;
15637;SDS011;26604;53.596;10.042;2023-08-07T01:32:08;5.03;;;1.45;;
15637;SDS011;26604;53.596;10.042;2023-08-07T01:34:37;3.47;;;1.50;;
15637;SDS011;26604;53.596;10.042;2023-08-07T01:37:08;2.80;;;1.65;;
15637;SDS011;26604;53.596;10.042;2023-08-07T01:39:38;5.45;;;2.70;;
15637;SDS011;26604;53.596;10.042;2023-08-07T01:42:06;2.22;;;1.40;;
15637;SDS011;26604;53.596;10.042;2023-08-07T01:44:35;7.93;;;1.75;;
15637;SDS011;26604;53.596;10.042;2023-08-07T01:47:03;3.78;;;1.55;;
15637;SDS011;26604;53.596;10.042;2023-08-07T01:49:30;5.30;;;1.70;;
15637;SDS011;26604;53.596;10.042;2023-08-07T01:51:57;3.13;;;2.10;;
15637;SDS011;26604;53.596;10.042;2023-08-07T01:54:26;4.75;;;1.90;;
15637;SDS011;26604;53.596;10.042;2023-08-07T01:56:52;2.80;;;1.73;;
15637;SDS011;26604;53.596;10.042;2023-08-07T01:59:19;4.78;;;1.73;;
15637;SDS011;26604;53.596;10.042;2023-08-07T02:01:46;3.25;;;1.83;;
15637;SDS011;26604;53.596;10.042;2023-08-07T02:04:13;3.90;;;1.50;;
15637;SDS011;26604;53.596;10.042;2023-08-07T02:06:40;8.43;;;1.98;;
15637;SDS011;26604;53.596;10.042;2023-08-07T02:09:07;2.75;;;1.80;;
15637;SDS011;26604;53.596;10.042;2023-08-07T02:11:35;3.47;;;1.30;;
15637;SDS011;26604;53.596;10.042;2023-08-07T02:14:02;3.47;;;1.88;;
15637;SDS011;26604;53.596;10.042;2023-08-07T02:16:29;4.43;;;1.65;;
15637;SDS011;26604;53.596;10.042;2023-08-07T02:18:55;2.13;;;1.42;;
15637;SDS011;26604;53.596;10.042;2023-08-07T02:21:22;5.32;;;2.08;;
15637;SDS011;26604;53.596;10.042;2023-08-07T02:23:49;3.40;;;1.83;;
15637;SDS011;26604;53.596;10.042;2023-08-07T02:26:16;4.72;;;1.70;;
15637;SDS011;26604;53.596;10.042;2023-08-07T02:28:44;7.30;;;1.80;;
15637;SDS011;26604;53.596;10.042;2023-08-07T02:31:11;3.47;;;1.58;;
15637;SDS011;26604;53.596;10.042;2023-08-07T02:33:38;4.68;;;1.95;;
15637;SDS011;26604;53.596;10.042;2023-08-07T02:36:06;3.33;;;1.73;;
15637;SDS011;26604;53.596;10.042;2023-08-07T02:38:33;2.67;;;1.75;;
15637;SDS011;26604;53.596;10.042;2023-08-07T02:41:00;3.50;;;1.90;;
15637;SDS011;26604;53.596;10.042;2023-08-07T02:43:27;4.28;;;2.15;;
15637;SDS011;26604;53.596;10.042;2023-08-07T02:45:55;4.22;;;1.48;;
15637;SDS011;26604;53.596;10.042;2023-08-07T02:48:22;4.07;;;1.40;;
15637;SDS011;26604;53.596;10.042;2023-08-07T02:50:48;4.72;;;1.95;;
15637;SDS011;26604;53.596;10.042;2023-08-07T02:53:16;4.95;;;1.45;;
15637;SDS011;26604;53.596;10.042;2023-08-07T02:55:43;4.20;;;1.77;;
15637;SDS011;26604;53.596;10.042;2023-08-07T02:58:10;2.03;;;1.70;;
15637;SDS011;26604;53.596;10.042;2023-08-07T03:00:37;5.72;;;1.60;;
15637;SDS011;26604;53.596;10.042;2023-08-07T03:03:05;3.67;;;1.85;;
15637;SDS011;26604;53.596;10.042;2023-08-07T03:05:32;5.90;;;1.73;;
15637;SDS011;26604;53.596;10.042;2023-08-07T03:07:59;6.60;;;2.70;;
15637;SDS011;26604;53.596;10.042;2023-08-07T03:10:28;5.13;;;1.45;;
15637;SDS011;26604;53.596;10.042;2023-08-07T03:12:55;5.05;;;1.80;;
15637;SDS011;26604;53.596;10.042;2023-08-07T03:15:22;4.65;;;1.30;;
15637;SDS011;26604;53.596;10.042;2023-08-07T03:17:49;3.00;;;1.30;;
15637;SDS011;26604;53.596;10.042;2023-08-07T03:20:17;6.97;;;1.15;;
15637;SDS011;26604;53.596;10.042;2023-08-07T03:22:44;1.67;;;1.15;;
15637;SDS011;26604;53.596;10.042;2023-08-07T03:25:11;5.60;;;1.45;;
15637;SDS011;26604;53.596;10.042;2023-08-07T03:27:38;4.25;;;1.48;;
15637;SDS011;26604;53.596;10.042;2023-08-07T03:30:05;3.72;;;1.50;;
15637;SDS011;26604;53.596;10.042;2023-08-07T03:32:32;3.35;;;1.38;;
15637;SDS011;26604;53.596;10.042;2023-08-07T03:34:59;2.70;;;1.42;;
15637;SDS011;26604;53.596;10.042;2023-08-07T03:37:30;2.63;;;1.40;;
15637;SDS011;26604;53.596;10.042;2023-08-07T03:39:57;4.93;;;1.73;;
15637;SDS011;26604;53.596;10.042;2023-08-07T03:42:24;5.70;;;1.40;;
15637;SDS011;26604;53.596;10.042;2023-08-07T03:44:51;5.90;;;1.58;;
15637;SDS011;26604;53.596;10.042;2023-08-07T03:47:18;2.60;;;1.40;;
15637;SDS011;26604;53.596;10.042;2023-08-07T03:49:45;2.47;;;1.40;;
15637;SDS011;26604;53.596;10.042;2023-08-07T03:52:11;3.50;;;1.60;;
15637;SDS011;26604;53.596;10.042;2023-08-07T03:54:40;3.60;;;1.60;;
15637;SDS011;26604;53.596;10.042;2023-08-07T03:57:07;5.03;;;1.67;;
15637;SDS011;26604;53.596;10.042;2023-08-07T03:59:33;2.13;;;1.40;;
15637;SDS011;26604;53.596;10.042;2023-08-07T04:02:00;5.22;;;1.70;;
15637;SDS011;26604;53.596;10.042;2023-08-07T04:04:27;3.00;;;1.60;;
15637;SDS011;26604;53.596;10.042;2023-08-07T04:06:54;4.20;;;1.42;;
15637;SDS011;26604;53.596;10.042;2023-08-07T04:09:21;3.20;;;1.25;;
15637;SDS011;26604;53.596;10.042;2023-08-07T04:11:49;3.33;;;2.03;;
15637;SDS011;26604;53.596;10.042;2023-08-07T04:14:16;6.28;;;1.58;;
15637;SDS011;26604;53.596;10.042;2023-08-07T04:16:43;4.72;;;1.83;;
15637;SDS011;26604;53.596;10.042;2023-08-07T04:19:10;4.88;;;2.20;;
15637;SDS011;26604;53.596;10.042;2023-08-07T04:21:37;4.55;;;2.05;;
15637;SDS011;26604;53.596;10.042;2023-08-07T04:24:04;7.43;;;1.65;;
15637;SDS011;26604;53.596;10.042;2023-08-07T04:26:35;5.00;;;2.13;;
15637;SDS011;26604;53.596;10.042;2023-08-07T04:29:03;6.53;;;1.35;;
15637;SDS011;26604;53.596;10.042;2023-08-07T04:31:30;6.22;;;1.90;;
15637;SDS011;26604;53.596;10.042;2023-08-07T04:33:57;4.28;;;1.70;;
15637;SDS011;26604;53.596;10.042;2023-08-07T04:36:25;5.30;;;1.77;;
15637;SDS011;26604;53.596;10.042;2023-08-07T04:38:52;6.10;;;2.13;;
15637;SDS011;26604;53.596;10.042;2023-08-07T04:41:20;3.60;;;1.67;;
15637;SDS011;26604;53.596;10.042;2023-08-07T04:43:50;4.57;;;2.05;;
15637;SDS011;26604;53.596;10.042;2023-08-07T04:46:18;4.40;;;2.00;;
15637;SDS011;26604;53.596;10.042;2023-08-07T04:48:45;7.95;;;2.10;;
15637;SDS011;26604;53.596;10.042;2023-08-07T04:51:12;6.80;;;2.30;;
15637;SDS011;26604;53.596;10.042;2023-08-07T04:53:40;7.40;;;1.92;;
15637;SDS011;26604;53.596;10.042;2023-08-07T04:56:07;7.43;;;1.73;;
15637;SDS011;26604;53.596;10.042;2023-08-07T04:58:34;9.13;;;1.90;;
15637;SDS011;26604;53.596;10.042;2023-08-07T05:01:01;8.30;;;2.20;;
15637;SDS011;26604;53.596;10.042;2023-08-07T05:03:29;10.02;;;2.95;;
15637;SDS011;26604;53.596;10.042;2023-08-07T05:05:59;6.53;;;1.85;;
15637;SDS011;26604;53.596;10.042;2023-08-07T05:08:27;9.82;;;2.28;;
15637;SDS011;26604;53.596;10.042;2023-08-07T05:10:54;6.93;;;2.03;;
15637;SDS011;26604;53.596;10.042;2023-08-07T05:13:21;6.45;;;2.10;;
15637;SDS011;26604;53.596;10.042;2023-08-07T05:15:48;4.60;;;1.90;;
15637;SDS011;26604;53.596;10.042;2023-08-07T05:18:15;7.65;;;2.08;;
15637;SDS011;26604;53.596;10.042;2023-08-07T05:20:43;6.22;;;2.00;;
15637;SDS011;26604;53.596;10.042;2023-08-07T05:23:10;7.60;;;1.73;;
15637;SDS011;26604;53.596;10.042;2023-08-07T05:25:37;4.97;;;1.83;;
15637;SDS011;26604;53.596;10.042;2023-08-07T05:28:04;5.13;;;1.83;;
15637;SDS011;26604;53.596;10.042;2023-08-07T05:30:31;6.03;;;1.90;;
15637;SDS011;26604;53.596;10.042;2023-08-07T05:32:58;13.45;;;2.20;;
15637;SDS011;26604;53.596;10.042;2023-08-07T05:35:25;9.32;;;2.10;;
15637;SDS011;26604;53.596;10.042;2023-08-07T05:37:53;4.57;;;1.80;;
15637;SDS011;26604;53.596;10.042;2023-08-07T05:40:20;8.25;;;2.08;;
15637;SDS011;26604;53.596;10.042;2023-08-07T05:42:47;5.97;;;1.40;;
15637;SDS011;26604;53.596;10.042;2023-08-07T05:45:14;8.13;;;1.60;;
15637;SDS011;26604;53.596;10.042;2023-08-07T05:47:41;4.05;;;1.63;;
15637;SDS011;26604;53.596;10.042;2023-08-07T05:50:08;8.60;;;1.80;;
15637;SDS011;26604;53.596;10.042;2023-08-07T05:52:35;5.43;;;3.08;;
15637;SDS011;26604;53.596;10.042;2023-08-07T05:55:03;8.68;;;2.40;;
15637;SDS011;26604;53.596;10.042;2023-08-07T05:57:31;6.43;;;1.60;;
15637;SDS011;26604;53.596;10.042;2023-08-07T05:59:58;7.22;;;1.95;;
15637;SDS011;26604;53.596;10.042;2023-08-07T06:02:27;9.43;;;2.00;;
15637;SDS011;26604;53.596;10.042;2023-08-07T06:04:54;8.32;;;1.80;;
15637;SDS011;26604;53.596;10.042;2023-08-07T06:07:21;7.22;;;2.22;;
15637;SDS011;26604;53.596;10.042;2023-08-07T06:09:48;9.43;;;2.03;;
15637;SDS011;26604;53.596;10.042;2023-08-07T06:12:16;7.43;;;1.88;;
15637;SDS011;26604;53.596;10.042;2023-08-07T06:14:43;9.85;;;2.03;;
15637;SDS011;26604;53.596;10.042;2023-08-07T06:17:10;12.65;;;2.10;;
15637;SDS011;26604;53.596;10.042;2023-08-07T06:19:37;9.75;;;1.80;;
15637;SDS011;26604;53.596;10.042;2023-08-07T06:22:04;7.90;;;1.70;;
15637;SDS011;26604;53.596;10.042;2023-08-07T06:24:31;6.97;;;2.03;;
15637;SDS011;26604;53.596;10.042;2023-08-07T06:26:58;7.55;;;2.15;;
15637;SDS011;26604;53.596;10.042;2023-08-07T06:29:26;11.55;;;2.17;;
15637;SDS011;26604;53.596;10.042;2023-08-07T06:31:53;10.93;;;2.25;;
15637;SDS011;26604;53.596;10.042;2023-08-07T06:34:20;8.13;;;2.03;;
15637;SDS011;26604;53.596;10.042;2023-08-07T06:36:47;13.30;;;2.63;;
15637;SDS011;26604;53.596;10.042;2023-08-07T06:39:14;8.55;;;2.10;;
15637;SDS011;26604;53.596;10.042;2023-08-07T06:41:41;14.45;;;2.65;;
15637;SDS011;26604;53.596;10.042;2023-08-07T06:44:08;13.65;;;2.40;;
15637;SDS011;26604;53.596;10.042;2023-08-07T06:46:36;12.48;;;2.55;;
15637;SDS011;26604;53.596;10.042;2023-08-07T06:49:03;11.80;;;2.38;;
15637;SDS011;26604;53.596;10.042;2023-08-07T06:51:30;9.77;;;2.70;;
15637;SDS011;26604;53.596;10.042;2023-08-07T06:53:59;10.60;;;2.60;;
15637;SDS011;26604;53.596;10.042;2023-08-07T06:56:26;10.25;;;2.78;;
15637;SDS011;26604;53.596;10.042;2023-08-07T06:58:53;9.15;;;2.55;;
15637;SDS011;26604;53.596;10.042;2023-08-07T07:01:20;20.75;;;3.95;;
15637;SDS011;26604;53.596;10.042;2023-08-07T07:03:48;8.05;;;2.42;;
15637;SDS011;26604;53.596;10.042;2023-08-07T07:06:17;15.07;;;2.80;;
15637;SDS011;26604;53.596;10.042;2023-08-07T07:08:45;9.38;;;2.33;;
15637;SDS011;26604;53.596;10.042;2023-08-07T07:11:12;9.45;;;2.55;;
15637;SDS011;26604;53.596;10.042;2023-08-07T07:13:39;14.38;;;3.08;;
15637;SDS011;26604;53.596;10.042;2023-08-07T07:16:06;11.80;;;2.67;;
15637;SDS011;26604;53.596;10.042;2023-08-07T07:18:33;11.30;;;2.70;;
15637;SDS011;26604;53.596;10.042;2023-08-07T07:21:01;12.80;;;2.97;;
15637;SDS011;26604;53.596;10.042;2023-08-07T07:23:28;10.25;;;2.78;;
15637;SDS011;26604;53.596;10.042;2023-08-07T07:25:55;17.05;;;3.03;;
15637;SDS011;26604;53.596;10.042;2023-08-07T07:28:23;12.00;;;2.72;;
15637;SDS011;26604;53.596;10.042;2023-08-07T07:30:50;12.90;;;3.22;;
15637;SDS011;26604;53.596;10.042;2023-08-07T07:33:17;13.20;;;3.05;;
15637;SDS011;26604;53.596;10.042;2023-08-07T07:35:44;11.48;;;2.38;;
15637;SDS011;26604;53.596;10.042;2023-08-07T07:38:12;11.52;;;3.22;;
15637;SDS011;26604;53.596;10.042;2023-08-07T07:40:40;9.88;;;2.90;;
15637;SDS011;26604;53.596;10.042;2023-08-07T07:43:07;12.35;;;2.67;;
15637;SDS011;26604;53.596;10.042;2023-08-07T07:45:34;15.02;;;2.33;;
15637;SDS011;26604;53.596;10.042;2023-08-07T07:48:01;11.15;;;3.80;;
15637;SDS011;26604;53.596;10.042;2023-08-07T07:50:28;16.83;;;2.90;;
15637;SDS011;26604;53.596;10.042;2023-08-07T07:52:55;14.75;;;2.55;;
15637;SDS011;26604;53.596;10.042;2023-08-07T07:55:24;15.65;;;3.10;;
15637;SDS011;26604;53.596;10.042;2023-08-07T07:57:51;21.48;;;2.88;;
15637;SDS011;26604;53.596;10.042;2023-08-07T08:00:18;18.60;;;2.90;;
15637;SDS011;26604;53.596;10.042;2023-08-07T08:02:47;15.77;;;2.47;;
15637;SDS011;26604;53.596;10.042;2023-08-07T08:05:14;12.00;;;3.08;;
15637;SDS011;26604;53.596;10.042;2023-08-07T08:07:41;15.50;;;3.65;;
15637;SDS011;26604;53.596;10.042;2023-08-07T08:10:08;11.32;;;2.63;;
15637;SDS011;26604;53.596;10.042;2023-08-07T08:12:37;14.13;;;3.30;;
15637;SDS011;26604;53.596;10.042;2023-08-07T08:15:04;12.98;;;2.70;;
15637;SDS011;26604;53.596;10.042;2023-08-07T08:17:31;12.98;;;2.97;;
15637;SDS011;26604;53.596;10.042;2023-08-07T08:19:58;13.68;;;2.90;;
15637;SDS011;26604;53.596;10.042;2023-08-07T08:22:25;17.38;;;3.00;;
15637;SDS011;26604;53.596;10.042;2023-08-07T08:24:52;11.60;;;2.97;;
15637;SDS011;26604;53.596;10.042;2023-08-07T08:27:19;21.92;;;4.55;;
15637;SDS011;26604;53.596;10.042;2023-08-07T08:29:48;12.05;;;3.10;;
15637;SDS011;26604;53.596;10.042;2023-08-07T08:32:15;12.85;;;3.53;;
15637;SDS011;26604;53.596;10.042;2023-08-07T08:34:42;10.50;;;2.75;;
15637;SDS011;26604;53.596;10.042;2023-08-07T08:37:08;10.35;;;3.08;;
15637;SDS011;26604;53.596;10.042;2023-08-07T08:39:36;10.20;;;2.65;;
15637;SDS011;26604;53.596;10.042;2023-08-07T08:42:03;14.88;;;3.60;;
15637;SDS011;26604;53.596;10.042;2023-08-07T08:44:31;18.60;;;2.95;;
15637;SDS011;26604;53.596;10.042;2023-08-07T08:47:03;11.70;;;3.00;;
15637;SDS011;26604;53.596;10.042;2023-08-07T08:49:35;12.10;;;3.03;;
15637;SDS011;26604;53.596;10.042;2023-08-07T08:52:09;12.23;;;3.40;;
15637;SDS011;26604;53.596;10.042;2023-08-07T08:54:37;13.05;;;3.00;;
15637;SDS011;26604;53.596;10.042;2023-08-07T08:57:06;8.95;;;2.63;;
15637;SDS011;26604;53.596;10.042;2023-08-07T08:59:33;16.42;;;2.90;;
15637;SDS011;26604;53.596;10.042;2023-08-07T09:02:00;11.23;;;2.67;;
15637;SDS011;26604;53.596;10.042;2023-08-07T09:04:28;14.15;;;2.90;;
15637;SDS011;26604;53.596;10.042;2023-08-07T09:06:55;15.25;;;2.90;;
15637;SDS011;26604;53.596;10.042;2023-08-07T09:09:22;16.10;;;3.22;;
15637;SDS011;26604;53.596;10.042;2023-08-07T09:11:49;14.38;;;2.90;;
15637;SDS011;26604;53.596;10.042;2023-08-07T09:14:22;14.88;;;3.97;;
15637;SDS011;26604;53.596;10.042;2023-08-07T09:16:55;14.18;;;3.22;;
15637;SDS011;26604;53.596;10.042;2023-08-07T09:19:25;16.85;;;2.58;;
15637;SDS011;26604;53.596;10.042;2023-08-07T09:21:53;16.05;;;2.72;;
15637;SDS011;26604;53.596;10.042;2023-08-07T09:24:20;9.27;;;2.63;;
15637;SDS011;26604;53.596;10.042;2023-08-07T09:26:47;18.30;;;2.97;;
15637;SDS011;26604;53.596;10.042;2023-08-07T09:29:17;15.75;;;3.08;;
15637;SDS011;26604;53.596;10.042;2023-08-07T09:31:43;10.02;;;2.67;;
15637;SDS011;26604;53.596;10.042;2023-08-07T09:34:11;8.27;;;2.20;;
15637;SDS011;26604;53.596;10.042;2023-08-07T09:36:42;16.00;;;2.33;;
15637;SDS011;26604;53.596;10.042;2023-08-07T09:39:09;12.13;;;2.40;;
15637;SDS011;26604;53.596;10.042;2023-08-07T09:41:36;8.07;;;2.67;;
15637;SDS011;26604;53.596;10.042;2023-08-07T09:44:06;6.53;;;1.90;;
15637;SDS011;26604;53.596;10.042;2023-08-07T09:46:40;10.07;;;2.80;;
15637;SDS011;26604;53.596;10.042;2023-08-07T09:49:07;12.30;;;2.25;;
15637;SDS011;26604;53.596;10.042;2023-08-07T09:51:40;9.77;;;2.20;;
15637;SDS011;26604;53.596;10.042;2023-08-07T09:54:09;11.32;;;3.50;;
15637;SDS011;26604;53.596;10.042;2023-08-07T09:56:36;13.00;;;2.25;;
15637;SDS011;26604;53.596;10.042;2023-08-07T09:59:04;6.45;;;2.17;;
15637;SDS011;26604;53.596;10.042;2023-08-07T10:01:35;8.82;;;2.10;;
15637;SDS011;26604;53.596;10.042;2023-08-07T10:04:04;7.45;;;2.50;;
15637;SDS011;26604;53.596;10.042;2023-08-07T10:06:31;7.25;;;2.20;;
15637;SDS011;26604;53.596;10.042;2023-08-07T10:09:00;9.50;;;2.38;;
15637;SDS011;26604;53.596;10.042;2023-08-07T10:11:27;10.43;;;2.45;;
15637;SDS011;26604;53.596;10.042;2023-08-07T10:13:58;10.05;;;1.95;;
15637;SDS011;26604;53.596;10.042;2023-08-07T10:16:26;10.35;;;2.60;;
15637;SDS011;26604;53.596;10.042;2023-08-07T10:18:53;12.70;;;2.70;;
15637;SDS011;26604;53.596;10.042;2023-08-07T10:21:20;12.07;;;2.10;;
15637;SDS011;26604;53.596;10.042;2023-08-07T10:23:49;13.13;;;3.15;;
15637;SDS011;26604;53.596;10.042;2023-08-07T10:26:20;11.55;;;2.55;;
15637;SDS011;26604;53.596;10.042;2023-08-07T10:28:48;7.35;;;2.45;;
15637;SDS011;26604;53.596;10.042;2023-08-07T10:31:17;8.15;;;1.98;;
15637;SDS011;26604;53.596;10.042;2023-08-07T10:33:46;9.05;;;2.20;;
15637;SDS011;26604;53.596;10.042;2023-08-07T10:36:15;12.98;;;2.85;;
15637;SDS011;26604;53.596;10.042;2023-08-07T10:38:43;15.05;;;2.83;;
15637;SDS011;26604;53.596;10.042;2023-08-07T10:41:10;9.05;;;2.30;;
15637;SDS011;26604;53.596;10.042;2023-08-07T10:43:40;16.52;;;3.70;;
15637;SDS011;26604;53.596;10.042;2023-08-07T10:46:09;8.75;;;2.10;;
15637;SDS011;26604;53.596;10.042;2023-08-07T10:48:37;7.18;;;1.75;;
15637;SDS011;26604;53.596;10.042;2023-08-07T10:51:05;7.57;;;2.25;;
15637;SDS011;26604;53.596;10.042;2023-08-07T10:53:34;5.80;;;2.00;;
15637;SDS011;26604;53.596;10.042;2023-08-07T10:56:02;10.23;;;2.30;;
15637;SDS011;26604;53.596;10.042;2023-08-07T10:58:30;10.73;;;2.05;;
15637;SDS011;26604;53.596;10.042;2023-08-07T11:01:21;9.00;;;2.30;;
15637;SDS011;26604;53.596;10.042;2023-08-07T11:03:54;10.23;;;2.45;;
15637;SDS011;26604;53.596;10.042;2023-08-07T11:06:22;9.95;;;2.67;;
15637;SDS011;26604;53.596;10.042;2023-08-07T11:08:51;10.25;;;2.58;;
15637;SDS011;26604;53.596;10.042;2023-08-07T11:11:18;11.50;;;2.30;;
15637;SDS011;26604;53.596;10.042;2023-08-07T11:13:46;13.88;;;2.35;;
15637;SDS011;26604;53.596;10.042;2023-08-07T11:16:12;5.10;;;1.92;;
15637;SDS011;26604;53.596;10.042;2023-08-07T11:18:41;11.07;;;2.20;;
15637;SDS011;26604;53.596;10.042;2023-08-07T11:21:08;9.15;;;2.17;;
15637;SDS011;26604;53.596;10.042;2023-08-07T11:23:36;9.98;;;2.17;;
15637;SDS011;26604;53.596;10.042;2023-08-07T11:26:03;6.85;;;2.05;;
15637;SDS011;26604;53.596;10.042;2023-08-07T11:28:33;8.40;;;2.60;;
15637;SDS011;26604;53.596;10.042;2023-08-07T11:31:00;8.02;;;2.08;;
15637;SDS011;26604;53.596;10.042;2023-08-07T11:33:28;8.95;;;1.63;;
15637;SDS011;26604;53.596;10.042;2023-08-07T11:35:57;7.07;;;1.52;;
15637;SDS011;26604;53.596;10.042;2023-08-07T11:38:30;7.85;;;1.83;;
15637;SDS011;26604;53.596;10.042;2023-08-07T11:40:58;5.95;;;1.70;;
15637;SDS011;26604;53.596;10.042;2023-08-07T11:43:26;8.15;;;1.75;;
15637;SDS011;26604;53.596;10.042;2023-08-07T11:45:55;9.43;;;1.95;;
15637;SDS011;26604;53.596;10.042;2023-08-07T11:48:23;16.80;;;2.08;;
15637;SDS011;26604;53.596;10.042;2023-08-07T11:50:51;8.25;;;1.83;;
15637;SDS011;26604;53.596;10.042;2023-08-07T11:53:20;7.53;;;1.83;;
15637;SDS011;26604;53.596;10.042;2023-08-07T11:55:51;9.10;;;1.95;;
15637;SDS011;26604;53.596;10.042;2023-08-07T11:58:19;5.28;;;1.52;;
15637;SDS011;26604;53.596;10.042;2023-08-07T12:00:46;9.20;;;2.40;;
15637;SDS011;26604;53.596;10.042;2023-08-07T12:03:23;9.45;;;2.08;;
15637;SDS011;26604;53.596;10.042;2023-08-07T12:05:51;4.20;;;1.48;;
15637;SDS011;26604;53.596;10.042;2023-08-07T12:08:18;9.02;;;1.60;;
15637;SDS011;26604;53.596;10.042;2023-08-07T12:10:48;4.40;;;1.35;;
15637;SDS011;26604;53.596;10.042;2023-08-07T12:13:19;8.95;;;1.75;;
15637;SDS011;26604;53.596;10.042;2023-08-07T12:15:50;11.10;;;2.30;;
15637;SDS011;26604;53.596;10.042;2023-08-07T12:18:18;8.73;;;2.28;;
15637;SDS011;26604;53.596;10.042;2023-08-07T12:20:45;7.65;;;1.70;;
15637;SDS011;26604;53.596;10.042;2023-08-07T12:23:13;5.47;;;1.65;;
15637;SDS011;26604;53.596;10.042;2023-08-07T12:25:42;6.03;;;1.70;;
15637;SDS011;26604;53.596;10.042;2023-08-07T12:28:09;7.05;;;1.83;;
15637;SDS011;26604;53.596;10.042;2023-08-07T12:30:37;12.57;;;1.40;;
15637;SDS011;26604;53.596;10.042;2023-08-07T12:33:04;4.88;;;1.80;;
15637;SDS011;26604;53.596;10.042;2023-08-07T12:35:34;9.35;;;2.08;;
15637;SDS011;26604;53.596;10.042;2023-08-07T12:38:01;5.30;;;1.80;;
15637;SDS011;26604;53.596;10.042;2023-08-07T12:40:28;10.10;;;2.47;;
15637;SDS011;26604;53.596;10.042;2023-08-07T12:42:57;7.15;;;2.05;;
15637;SDS011;26604;53.596;10.042;2023-08-07T12:45:24;6.38;;;2.00;;
15637;SDS011;26604;53.596;10.042;2023-08-07T12:47:51;9.88;;;1.98;;
15637;SDS011;26604;53.596;10.042;2023-08-07T12:50:18;13.27;;;2.33;;
15637;SDS011;26604;53.596;10.042;2023-08-07T12:52:45;10.30;;;2.38;;
15637;SDS011;26604;53.596;10.042;2023-08-07T12:55:12;28.40;;;3.00;;
15637;SDS011;26604;53.596;10.042;2023-08-07T12:57:41;10.75;;;2.45;;
15637;SDS011;26604;53.596;10.042;2023-08-07T13:00:10;10.35;;;2.10;;
15637;SDS011;26604;53.596;10.042;2023-08-07T13:02:40;7.57;;;2.10;;
15637;SDS011;26604;53.596;10.042;2023-08-07T13:05:08;7.32;;;2.45;;
15637;SDS011;26604;53.596;10.042;2023-08-07T13:07:35;6.88;;;1.67;;
15637;SDS011;26604;53.596;10.042;2023-08-07T13:10:03;10.85;;;2.30;;
15637;SDS011;26604;53.596;10.042;2023-08-07T13:12:33;14.00;;;1.85;;
15637;SDS011;26604;53.596;10.042;2023-08-07T13:15:01;5.15;;;1.92;;
15637;SDS011;26604;53.596;10.042;2023-08-07T13:17:29;6.00;;;2.00;;
15637;SDS011;26604;53.596;10.042;2023-08-07T13:19:56;7.30;;;2.03;;
15637;SDS011;26604;53.596;10.042;2023-08-07T13:22:24;9.05;;;2.25;;
15637;SDS011;26604;53.596;10.042;2023-08-07T13:24:53;10.50;;;2.40;;
15637;SDS011;26604;53.596;10.042;2023-08-07T13:27:20;8.50;;;1.98;;
15637;SDS011;26604;53.596;10.042;2023-08-07T13:29:47;8.07;;;2.67;;
15637;SDS011;26604;53.596;10.042;2023-08-07T13:32:14;11.18;;;2.50;;
15637;SDS011;26604;53.596;10.042;2023-08-07T13:34:44;10.05;;;2.10;;
15637;SDS011;26604;53.596;10.042;2023-08-07T13:37:11;14.25;;;2.33;;
15637;SDS011;26604;53.596;10.042;2023-08-07T13:39:39;12.45;;;2.20;;
15637;SDS011;26604;53.596;10.042;2023-08-07T13:42:06;12.32;;;2.60;;
15637;SDS011;26604;53.596;10.042;2023-08-07T13:44:33;12.50;;;2.72;;
15637;SDS011;26604;53.596;10.042;2023-08-07T13:47:00;15.20;;;2.90;;
15637;SDS011;26604;53.596;10.042;2023-08-07T13:49:27;12.38;;;2.10;;
15637;SDS011;26604;53.596;10.042;2023-08-07T13:51:55;14.68;;;2.42;;
15637;SDS011;26604;53.596;10.042;2023-08-07T13:54:22;16.63;;;3.22;;
15637;SDS011;26604;53.596;10.042;2023-08-07T13:56:49;10.73;;;2.45;;
15637;SDS011;26604;53.596;10.042;2023-08-07T13:59:17;13.65;;;2.55;;
15637;SDS011;26604;53.596;10.042;2023-08-07T14:01:43;13.27;;;2.17;;
15637;SDS011;26604;53.596;10.042;2023-08-07T14:04:10;17.23;;;3.38;;
15637;SDS011;26604;53.596;10.042;2023-08-07T14:06:39;12.77;;;2.65;;
15637;SDS011;26604;53.596;10.042;2023-08-07T14:09:08;10.77;;;2.63;;
15637;SDS011;26604;53.596;10.042;2023-08-07T14:11:35;12.23;;;2.33;;
15637;SDS011;26604;53.596;10.042;2023-08-07T14:14:02;9.02;;;2.25;;
15637;SDS011;26604;53.596;10.042;2023-08-07T14:16:29;22.58;;;2.60;;
15637;SDS011;26604;53.596;10.042;2023-08-07T14:18:56;9.95;;;2.40;;
15637;SDS011;26604;53.596;10.042;2023-08-07T14:21:25;10.63;;;2.75;;
15637;SDS011;26604;53.596;10.042;2023-08-07T14:23:52;9.63;;;2.00;;
15637;SDS011;26604;53.596;10.042;2023-08-07T14:26:21;6.80;;;2.20;;
15637;SDS011;26604;53.596;10.042;2023-08-07T14:28:47;16.38;;;2.70;;
15637;SDS011;26604;53.596;10.042;2023-08-07T14:31:14;7.72;;;2.55;;
15637;SDS011;26604;53.596;10.042;2023-08-07T14:33:41;13.23;;;2.35;;